Time;durP1;ratioP1;P1;durP2;ratioP2;P2;SDS_P1;SDS_P2;PMS_P1;PMS_P2;Temp;Humidity;BMP_temperature;BMP_pressure;BME280_temperature;BME280_humidity;BME280_pressure;Samples;Min_cycle;Max_cycle;Signal;HPM_P1;HPM_P2
2021/12/15 00:00:09;;;;;;;6.25;4.28;;;;;;;;;;5062659;28;20032;-88
2021/12/15 00:02:37;;;;;;;6.35;3.97;;;;;;;;;;5045617;28;20076;-88
2021/12/15 00:05:03;;;;;;;8.63;4.60;;;;;;;;;;5061648;28;20032;-89
2021/12/15 00:07:28;;;;;;;6.70;4.40;;;;;;;;;;5045282;28;20047;-88
2021/12/15 00:09:53;;;;;;;6.07;4.03;;;;;;;;;;5061419;28;20094;-89
2021/12/15 00:12:18;;;;;;;5.40;3.75;;;;;;;;;;5028609;28;20069;-89
2021/12/15 00:14:44;;;;;;;7.35;4.20;;;;;;;;;;5036257;28;20048;-89
2021/12/15 00:17:09;;;;;;;5.93;4.25;;;;;;;;;;5061223;28;20380;-87
2021/12/15 00:19:35;;;;;;;6.22;4.10;;;;;;;;;;5061798;28;20041;-88
2021/12/15 00:22:00;;;;;;;5.20;3.92;;;;;;;;;;5060290;28;20120;-87
2021/12/15 00:24:26;;;;;;;7.10;4.78;;;;;;;;;;5044436;28;20061;-87
2021/12/15 00:26:51;;;;;;;7.38;4.63;;;;;;;;;;5043863;28;20388;-88
2021/12/15 00:29:16;;;;;;;6.15;4.43;;;;;;;;;;5062056;28;20039;-88
2021/12/15 00:31:44;;;;;;;6.50;4.30;;;;;;;;;;5042946;28;20029;-88
2021/12/15 00:34:10;;;;;;;6.05;4.43;;;;;;;;;;5061446;28;20036;-89
2021/12/15 00:36:35;;;;;;;6.38;4.57;;;;;;;;;;5043491;28;20026;-89
2021/12/15 00:39:00;;;;;;;6.60;4.18;;;;;;;;;;5042871;28;20056;-89
2021/12/15 00:41:26;;;;;;;6.93;4.40;;;;;;;;;;5027123;28;20043;-89
2021/12/15 00:43:51;;;;;;;6.50;4.57;;;;;;;;;;5043579;28;20053;-88
2021/12/15 00:46:17;;;;;;;9.20;5.10;;;;;;;;;;5042900;28;20045;-88
2021/12/15 00:48:43;;;;;;;8.73;5.65;;;;;;;;;;5027079;28;20171;-87
2021/12/15 00:51:08;;;;;;;8.13;5.30;;;;;;;;;;5061573;28;20060;-88
2021/12/15 00:53:34;;;;;;;7.25;5.32;;;;;;;;;;5027904;28;20358;-88
2021/12/15 00:55:59;;;;;;;7.75;5.18;;;;;;;;;;5061236;28;20029;-88
2021/12/15 00:58:24;;;;;;;8.25;4.90;;;;;;;;;;5043882;28;20025;-88
2021/12/15 01:00:50;;;;;;;7.15;4.82;;;;;;;;;;5061291;28;20392;-88
2021/12/15 01:03:15;;;;;;;7.57;5.03;;;;;;;;;;5043451;28;20029;-88
2021/12/15 01:05:40;;;;;;;6.65;4.60;;;;;;;;;;5027050;28;20032;-88
2021/12/15 01:08:06;;;;;;;8.35;4.68;;;;;;;;;;5026708;28;20091;-88
2021/12/15 01:10:44;;;;;;;8.77;5.60;;;;;;;;;;5026451;28;20033;-90
2021/12/15 01:21:03;;;;;;;8.57;5.28;;;;;;;;;;5060647;28;20032;-88
2021/12/15 01:23:28;;;;;;;8.38;5.22;;;;;;;;;;5042858;28;20048;-88
2021/12/15 01:25:54;;;;;;;10.20;6.30;;;;;;;;;;5027244;28;20025;-88
2021/12/15 01:28:19;;;;;;;8.05;5.32;;;;;;;;;;5042357;28;20033;-88
2021/12/15 01:30:45;;;;;;;6.47;5.05;;;;;;;;;;5061429;28;20032;-89
2021/12/15 01:33:10;;;;;;;6.55;5.05;;;;;;;;;;5061445;28;20035;-88
2021/12/15 01:35:37;;;;;;;7.75;5.22;;;;;;;;;;5042667;28;20047;-88
2021/12/15 01:38:02;;;;;;;7.40;5.32;;;;;;;;;;5061711;28;20021;-88
2021/12/15 01:40:34;;;;;;;7.57;5.40;;;;;;;;;;5026931;28;20029;-88
2021/12/15 01:42:59;;;;;;;7.97;5.53;;;;;;;;;;5060966;28;20115;-87
2021/12/15 01:48:10;;;;;;;8.38;4.88;;;;;;;;;;5041166;28;20044;-88
2021/12/15 01:50:35;;;;;;;8.00;5.10;;;;;;;;;;5042795;28;20033;-88
2021/12/15 01:53:00;;;;;;;7.00;4.85;;;;;;;;;;5042826;28;20041;-88
2021/12/15 01:55:26;;;;;;;8.80;5.00;;;;;;;;;;5025533;28;20124;-88
2021/12/15 01:57:51;;;;;;;7.22;4.60;;;;;;;;;;5059995;28;20067;-88
2021/12/15 02:00:16;;;;;;;8.07;4.82;;;;;;;;;;5043308;28;20063;-88
2021/12/15 02:02:42;;;;;;;7.30;4.70;;;;;;;;;;5060884;28;20035;-88
2021/12/15 02:05:08;;;;;;;7.28;4.68;;;;;;;;;;5042869;28;20036;-88
2021/12/15 02:07:34;;;;;;;6.57;4.43;;;;;;;;;;5042445;28;20032;-88
2021/12/15 02:12:27;;;;;;;5.75;4.38;;;;;;;;;;5043053;28;20036;-88
2021/12/15 02:14:52;;;;;;;8.40;4.85;;;;;;;;;;5059049;28;20052;-88
2021/12/15 02:17:18;;;;;;;6.93;4.65;;;;;;;;;;5042509;28;20037;-87
2021/12/15 02:19:43;;;;;;;6.93;4.95;;;;;;;;;;5041189;28;20068;-88
2021/12/15 02:22:09;;;;;;;9.95;5.38;;;;;;;;;;5040893;28;20397;-87
2021/12/15 02:24:35;;;;;;;8.98;5.25;;;;;;;;;;5060867;28;20119;-87
2021/12/15 02:27:01;;;;;;;7.20;5.07;;;;;;;;;;5024982;28;20116;-88
2021/12/15 02:29:30;;;;;;;7.93;5.25;;;;;;;;;;5041846;28;20515;-87
2021/12/15 02:37:23;;;;;;;7.50;5.18;;;;;;;;;;5041598;28;20123;-88
2021/12/15 02:39:49;;;;;;;8.18;5.60;;;;;;;;;;5041068;28;20055;-88
2021/12/15 02:42:15;;;;;;;9.10;5.55;;;;;;;;;;5040827;28;20035;-88
2021/12/15 02:44:43;;;;;;;8.43;5.35;;;;;;;;;;5025588;28;20056;-88
2021/12/15 02:47:08;;;;;;;6.93;5.40;;;;;;;;;;5045404;28;20448;-89
2021/12/15 02:49:34;;;;;;;7.43;5.15;;;;;;;;;;5028433;28;20039;-87
2021/12/15 02:51:59;;;;;;;8.25;5.70;;;;;;;;;;5063663;28;20048;-88
2021/12/15 02:54:24;;;;;;;9.38;5.18;;;;;;;;;;5027941;28;20041;-88
2021/12/15 02:56:52;;;;;;;7.60;5.38;;;;;;;;;;5043779;28;20028;-88
2021/12/15 02:59:17;;;;;;;8.10;4.95;;;;;;;;;;5045181;28;20037;-88
2021/12/15 03:04:31;;;;;;;8.40;5.82;;;;;;;;;;5063565;28;20032;-87
2021/12/15 03:07:04;;;;;;;7.93;5.45;;;;;;;;;;5021823;28;20029;-88
2021/12/15 03:17:28;;;;;;;7.68;5.00;;;;;;;;;;5061683;28;20036;-88
2021/12/15 03:19:54;;;;;;;7.43;5.10;;;;;;;;;;5063624;28;20059;-88
2021/12/15 03:22:19;;;;;;;7.57;5.55;;;;;;;;;;5044482;28;20025;-88
2021/12/15 03:24:44;;;;;;;7.38;5.18;;;;;;;;;;5061905;28;20033;-87
2021/12/15 03:27:16;;;;;;;6.95;5.07;;;;;;;;;;5061698;28;20037;-89
2021/12/15 03:37:38;;;;;;;8.07;5.72;;;;;;;;;;5043765;28;20025;-88
2021/12/15 03:40:03;;;;;;;6.50;4.93;;;;;;;;;;5061949;28;20024;-87
2021/12/15 03:42:30;;;;;;;8.20;5.55;;;;;;;;;;5043626;28;20044;-88
2021/12/15 03:44:55;;;;;;;8.00;5.43;;;;;;;;;;5063180;28;20104;-88
2021/12/15 03:47:20;;;;;;;7.28;5.25;;;;;;;;;;5063221;28;20060;-88
2021/12/15 03:49:46;;;;;;;10.88;5.57;;;;;;;;;;5045238;28;20064;-88
2021/12/15 03:52:11;;;;;;;9.10;5.70;;;;;;;;;;5061948;28;20037;-87
2021/12/15 03:54:36;;;;;;;9.32;5.50;;;;;;;;;;5043819;28;20028;-88
2021/12/15 03:57:02;;;;;;;10.75;5.38;;;;;;;;;;5059792;28;20185;-88
2021/12/15 03:59:28;;;;;;;7.13;5.05;;;;;;;;;;5045128;28;20037;-88
2021/12/15 04:01:54;;;;;;;7.68;5.32;;;;;;;;;;5062613;28;20091;-88
2021/12/15 04:04:19;;;;;;;8.00;5.53;;;;;;;;;;5044395;28;20037;-88
2021/12/15 04:06:44;;;;;;;8.65;5.50;;;;;;;;;;5060778;28;20029;-88
2021/12/15 04:09:10;;;;;;;9.00;5.90;;;;;;;;;;5061342;28;20053;-88
2021/12/15 04:11:36;;;;;;;9.20;5.75;;;;;;;;;;5060727;28;20164;-88
2021/12/15 04:14:01;;;;;;;10.07;6.45;;;;;;;;;;5044459;28;20388;-88
2021/12/15 04:16:42;;;;;;;13.13;6.38;;;;;;;;;;5042637;28;20093;-88
2021/12/15 04:19:08;;;;;;;11.82;6.75;;;;;;;;;;5061686;28;20373;-88
2021/12/15 04:21:33;;;;;;;12.10;5.80;;;;;;;;;;5061188;28;20080;-88
2021/12/15 04:23:58;;;;;;;8.85;5.97;;;;;;;;;;5059688;28;20049;-88
2021/12/15 04:26:24;;;;;;;8.77;6.10;;;;;;;;;;5043275;28;20029;-87
2021/12/15 04:28:49;;;;;;;9.52;5.57;;;;;;;;;;5060311;28;20033;-88
2021/12/15 04:31:15;;;;;;;9.20;6.38;;;;;;;;;;5042978;28;20127;-87
2021/12/15 04:33:40;;;;;;;8.15;5.60;;;;;;;;;;5043974;28;20033;-88
2021/12/15 04:36:06;;;;;;;9.75;6.35;;;;;;;;;;5060433;28;20047;-87
2021/12/15 04:38:31;;;;;;;9.65;5.72;;;;;;;;;;5025668;28;20037;-88
2021/12/15 04:40:57;;;;;;;13.02;8.13;;;;;;;;;;5060310;28;20043;-87
2021/12/15 04:43:22;;;;;;;14.82;8.60;;;;;;;;;;5062179;28;20048;-88
2021/12/15 04:45:47;;;;;;;11.93;7.15;;;;;;;;;;5061275;28;20495;-89
2021/12/15 04:48:14;;;;;;;11.48;6.50;;;;;;;;;;5044000;28;20049;-88
2021/12/15 04:50:39;;;;;;;10.27;6.07;;;;;;;;;;5061899;28;20047;-88
2021/12/15 04:53:04;;;;;;;9.95;5.90;;;;;;;;;;5042298;28;20029;-88
2021/12/15 04:55:30;;;;;;;11.85;5.90;;;;;;;;;;5059780;28;20430;-88
2021/12/15 04:57:55;;;;;;;10.25;6.68;;;;;;;;;;5042084;28;20039;-88
2021/12/15 05:00:21;;;;;;;11.05;7.38;;;;;;;;;;5060070;28;20036;-88
2021/12/15 05:02:47;;;;;;;15.52;7.10;;;;;;;;;;5060587;28;20033;-88
2021/12/15 05:05:12;;;;;;;11.15;7.10;;;;;;;;;;5060865;28;20028;-88
2021/12/15 05:07:37;;;;;;;11.57;7.78;;;;;;;;;;5042324;28;20029;-88
2021/12/15 05:10:02;;;;;;;11.25;7.00;;;;;;;;;;5059913;28;20120;-88
2021/12/15 05:12:28;;;;;;;15.25;7.22;;;;;;;;;;5026447;28;20036;-88
2021/12/15 05:14:53;;;;;;;11.70;7.05;;;;;;;;;;5041794;28;20044;-87
2021/12/15 05:17:19;;;;;;;10.70;6.70;;;;;;;;;;5042999;28;20063;-88
2021/12/15 05:19:46;;;;;;;11.88;6.50;;;;;;;;;;5041492;28;20116;-87
2021/12/15 05:22:12;;;;;;;10.40;6.47;;;;;;;;;;5058678;28;20040;-88
2021/12/15 05:24:38;;;;;;;11.80;7.03;;;;;;;;;;5040468;28;20037;-87
2021/12/15 05:27:05;;;;;;;13.15;7.30;;;;;;;;;;5040937;28;20040;-88
2021/12/15 05:29:30;;;;;;;22.40;12.05;;;;;;;;;;5024962;28;20037;-88
2021/12/15 05:31:55;;;;;;;16.75;9.75;;;;;;;;;;5059337;28;20088;-88
2021/12/15 05:34:21;;;;;;;12.02;7.03;;;;;;;;;;5041233;28;20020;-88
2021/12/15 05:36:46;;;;;;;9.50;6.07;;;;;;;;;;5025995;28;20074;-87
2021/12/15 05:39:11;;;;;;;13.15;7.40;;;;;;;;;;5059422;28;20078;-88
2021/12/15 05:41:37;;;;;;;12.63;7.72;;;;;;;;;;5042163;28;20044;-88
2021/12/15 05:44:02;;;;;;;12.23;7.47;;;;;;;;;;5041881;28;20037;-88
2021/12/15 05:46:27;;;;;;;12.35;7.35;;;;;;;;;;5059246;28;20039;-87
2021/12/15 05:48:53;;;;;;;13.65;7.72;;;;;;;;;;5040667;28;20396;-87
2021/12/15 05:51:18;;;;;;;15.25;9.57;;;;;;;;;;5040830;28;20048;-87
2021/12/15 05:53:44;;;;;;;12.50;8.18;;;;;;;;;;5058144;28;20036;-88
2021/12/15 05:56:09;;;;;;;12.18;8.50;;;;;;;;;;5042203;28;20105;-88
2021/12/15 05:58:34;;;;;;;12.60;8.10;;;;;;;;;;5043215;28;20032;-88
2021/12/15 06:01:00;;;;;;;13.32;7.70;;;;;;;;;;5060499;28;20025;-88
2021/12/15 06:03:25;;;;;;;10.70;6.78;;;;;;;;;;5059037;28;20033;-88
2021/12/15 06:05:50;;;;;;;12.55;7.60;;;;;;;;;;5043073;28;20029;-87
2021/12/15 06:08:16;;;;;;;10.93;7.05;;;;;;;;;;5059376;28;20068;-88
2021/12/15 06:10:41;;;;;;;13.00;7.95;;;;;;;;;;5060242;28;20542;-87
2021/12/15 06:13:07;;;;;;;13.35;7.63;;;;;;;;;;5041632;28;20035;-89
2021/12/15 06:15:32;;;;;;;13.32;7.95;;;;;;;;;;5025768;28;20488;-88
2021/12/15 06:17:57;;;;;;;12.60;7.13;;;;;;;;;;5042204;28;20047;-88
2021/12/15 06:20:23;;;;;;;14.35;7.57;;;;;;;;;;5044462;28;20025;-88
2021/12/15 06:22:48;;;;;;;11.63;7.35;;;;;;;;;;5063690;28;20052;-88
2021/12/15 06:25:13;;;;;;;11.95;7.55;;;;;;;;;;5030013;28;20123;-89
2021/12/15 06:27:40;;;;;;;13.35;7.78;;;;;;;;;;5063318;28;20032;-88
2021/12/15 06:30:06;;;;;;;13.40;7.60;;;;;;;;;;5063619;28;20048;-88
2021/12/15 06:32:31;;;;;;;10.82;7.65;;;;;;;;;;5045794;28;20029;-87
2021/12/15 06:34:56;;;;;;;12.48;7.68;;;;;;;;;;5028919;28;20041;-88
2021/12/15 06:37:22;;;;;;;13.15;8.30;;;;;;;;;;5062934;28;20484;-88
2021/12/15 06:39:47;;;;;;;12.45;7.88;;;;;;;;;;5063042;28;20123;-89
2021/12/15 06:42:12;;;;;;;13.25;8.18;;;;;;;;;;5063504;28;20531;-87
2021/12/15 06:44:40;;;;;;;14.15;8.30;;;;;;;;;;5027251;28;20025;-88
2021/12/15 07:00:27;;;;;;;12.77;7.80;;;;;;;;;;5044781;28;20033;-88
2021/12/15 07:02:52;;;;;;;12.68;8.05;;;;;;;;;;5026395;28;20469;-88
2021/12/15 07:05:18;;;;;;;11.95;7.32;;;;;;;;;;5043107;28;20040;-88
2021/12/15 07:07:43;;;;;;;13.75;7.25;;;;;;;;;;5061969;28;20170;-88
2021/12/15 07:10:08;;;;;;;12.00;7.68;;;;;;;;;;5062350;28;20040;-88
2021/12/15 07:12:34;;;;;;;15.40;8.88;;;;;;;;;;5044329;28;20040;-88
2021/12/15 07:14:59;;;;;;;14.57;8.43;;;;;;;;;;5043784;28;20068;-88
2021/12/15 07:17:25;;;;;;;13.20;8.60;;;;;;;;;;5061106;28;20426;-89
2021/12/15 07:20:04;;;;;;;13.35;7.95;;;;;;;;;;5043436;28;20025;-88
2021/12/15 07:22:36;;;;;;;15.25;7.93;;;;;;;;;;5044144;28;20044;-89
2021/12/15 07:25:02;;;;;;;13.40;8.32;;;;;;;;;;5042945;28;20431;-89
2021/12/15 07:27:27;;;;;;;15.00;8.55;;;;;;;;;;5023336;28;20029;-89
2021/12/15 07:29:52;;;;;;;13.65;8.15;;;;;;;;;;5058598;28;20536;-89
2021/12/15 07:32:18;;;;;;;14.25;8.27;;;;;;;;;;5057933;28;20037;-89
2021/12/15 07:34:43;;;;;;;15.05;8.05;;;;;;;;;;5059456;28;20055;-89
2021/12/15 07:37:08;;;;;;;13.82;8.65;;;;;;;;;;5059013;28;20020;-89
2021/12/15 07:39:36;;;;;;;15.10;8.90;;;;;;;;;;5057685;28;20041;-88
2021/12/15 07:42:07;;;;;;;15.70;8.85;;;;;;;;;;5056752;28;20040;-88
2021/12/15 07:44:32;;;;;;;18.10;9.13;;;;;;;;;;5039626;28;20043;-88
2021/12/15 07:46:58;;;;;;;13.40;8.18;;;;;;;;;;5040129;28;20029;-89
2021/12/15 07:49:23;;;;;;;13.45;8.13;;;;;;;;;;5057257;28;20083;-88
2021/12/15 07:51:48;;;;;;;13.07;7.95;;;;;;;;;;5039602;28;20482;-89
2021/12/15 07:54:14;;;;;;;13.73;7.82;;;;;;;;;;5056898;28;20060;-88
2021/12/15 07:56:39;;;;;;;18.90;7.75;;;;;;;;;;5056553;28;20040;-89
2021/12/15 07:59:05;;;;;;;13.90;8.10;;;;;;;;;;5056341;28;20033;-89
2021/12/15 08:01:30;;;;;;;15.68;9.00;;;;;;;;;;5039837;28;20396;-88
2021/12/15 08:03:56;;;;;;;16.30;8.82;;;;;;;;;;5059302;28;20035;-88
2021/12/15 08:06:21;;;;;;;14.93;8.50;;;;;;;;;;5061248;28;20032;-88
2021/12/15 08:08:46;;;;;;;13.80;8.70;;;;;;;;;;5043148;28;20039;-88
2021/12/15 08:11:12;;;;;;;14.55;8.60;;;;;;;;;;5061123;28;20030;-87
2021/12/15 08:13:37;;;;;;;14.23;8.18;;;;;;;;;;5079193;28;20031;-88
2021/12/15 08:16:03;;;;;;;13.40;7.22;;;;;;;;;;5079198;28;20116;-88
2021/12/15 08:18:28;;;;;;;16.92;8.80;;;;;;;;;;5079367;28;20392;-82
2021/12/15 08:20:53;;;;;;;15.43;8.35;;;;;;;;;;5079061;28;20056;-87
2021/12/15 08:23:19;;;;;;;16.98;8.13;;;;;;;;;;5078922;28;20091;-87
2021/12/15 08:25:44;;;;;;;17.67;8.18;;;;;;;;;;5060753;28;20044;-88
2021/12/15 08:28:09;;;;;;;14.77;8.32;;;;;;;;;;5060883;28;20041;-88
2021/12/15 08:30:35;;;;;;;15.88;8.05;;;;;;;;;;5063845;28;20108;-88
2021/12/15 08:33:00;;;;;;;14.38;7.95;;;;;;;;;;5045667;28;20050;-88
2021/12/15 08:35:25;;;;;;;17.13;8.00;;;;;;;;;;5044245;28;20039;-88
2021/12/15 08:37:51;;;;;;;20.83;10.20;;;;;;;;;;5062525;28;20033;-88
2021/12/15 08:40:16;;;;;;;23.77;10.65;;;;;;;;;;5078755;28;20051;-88
2021/12/15 08:42:41;;;;;;;23.85;10.85;;;;;;;;;;5079460;28;20110;-88
2021/12/15 08:45:07;;;;;;;22.63;10.73;;;;;;;;;;5077595;28;20032;-89
2021/12/15 08:47:32;;;;;;;10.73;5.25;;;;;;;;;;5044262;28;20024;-88
2021/12/15 08:49:57;;;;;;;19.45;9.38;;;;;;;;;;5043979;28;20521;-88
2021/12/15 08:52:23;;;;;;;21.45;9.93;;;;;;;;;;5078675;28;20376;-87
2021/12/15 08:54:48;;;;;;;26.60;10.70;;;;;;;;;;5060973;28;20032;-87
2021/12/15 08:57:13;;;;;;;22.80;10.95;;;;;;;;;;5059883;28;20035;-88
2021/12/15 08:59:39;;;;;;;27.30;11.43;;;;;;;;;;5061239;28;20033;-88
2021/12/15 09:02:04;;;;;;;24.42;11.45;;;;;;;;;;5060151;28;20361;-88
2021/12/15 09:04:29;;;;;;;31.17;12.77;;;;;;;;;;5078097;28;20093;-87
2021/12/15 09:06:55;;;;;;;27.77;11.70;;;;;;;;;;5043336;28;20028;-88
2021/12/15 09:09:20;;;;;;;34.05;12.82;;;;;;;;;;5077772;28;20551;-88
2021/12/15 09:11:46;;;;;;;28.63;12.40;;;;;;;;;;5060885;28;20040;-88
2021/12/15 09:14:11;;;;;;;28.48;12.93;;;;;;;;;;5043906;28;20381;-88
2021/12/15 09:16:36;;;;;;;32.45;12.82;;;;;;;;;;5044496;28;20056;-88
2021/12/15 09:19:02;;;;;;;121.25;39.03;;;;;;;;;;5077859;28;20037;-87
2021/12/15 09:21:27;;;;;;;243.95;65.72;;;;;;;;;;5079414;28;20104;-88
2021/12/15 09:23:52;;;;;;;213.35;59.65;;;;;;;;;;5061252;28;20035;-88
2021/12/15 09:26:20;;;;;;;49.45;17.33;;;;;;;;;;5059853;28;20041;-88
2021/12/15 09:28:45;;;;;;;95.25;29.63;;;;;;;;;;5059607;28;20162;-88
2021/12/15 09:31:11;;;;;;;36.17;14.63;;;;;;;;;;5075961;28;20072;-89
2021/12/15 09:33:36;;;;;;;30.65;13.13;;;;;;;;;;5041155;28;20469;-87
2021/12/15 09:36:01;;;;;;;23.52;10.80;;;;;;;;;;5058179;28;20044;-88
2021/12/15 09:38:27;;;;;;;186.70;62.72;;;;;;;;;;5078778;28;20503;-88
2021/12/15 09:40:52;;;;;;;44.88;18.55;;;;;;;;;;5077928;28;20025;-87
2021/12/15 09:43:18;;;;;;;79.60;29.83;;;;;;;;;;5044255;28;20036;-87
2021/12/15 10:02:56;;;;;;;33.45;13.82;;;;;;;;;;5082429;28;20028;-88
2021/12/15 10:12:29;;;;;;;35.38;15.07;;;;;;;;;;5063991;28;20036;-87
2021/12/15 10:17:44;;;;;;;40.33;17.50;;;;;;;;;;5063631;28;20033;-88
2021/12/15 10:20:09;;;;;;;34.13;13.38;;;;;;;;;;5047273;28;20043;-88
2021/12/15 10:22:43;;;;;;;29.77;12.32;;;;;;;;;;5081348;28;20040;-88
2021/12/15 10:25:09;;;;;;;34.40;13.90;;;;;;;;;;5063651;28;20079;-88
2021/12/15 10:27:34;;;;;;;55.22;24.27;;;;;;;;;;5081781;28;20032;-88
2021/12/15 10:29:59;;;;;;;36.53;16.27;;;;;;;;;;5063737;28;20067;-88
2021/12/15 10:32:25;;;;;;;31.55;13.95;;;;;;;;;;5064389;28;20476;-88
2021/12/15 10:34:50;;;;;;;30.23;14.32;;;;;;;;;;5081584;28;20029;-86
2021/12/15 10:37:15;;;;;;;29.58;12.95;;;;;;;;;;5081386;28;20047;-87
2021/12/15 10:39:41;;;;;;;27.80;14.45;;;;;;;;;;5064087;28;20068;-88
2021/12/15 10:42:06;;;;;;;27.33;13.70;;;;;;;;;;5065209;28;20036;-87
2021/12/15 10:44:31;;;;;;;24.50;11.95;;;;;;;;;;5063777;28;20496;-88
2021/12/15 10:46:57;;;;;;;27.52;12.88;;;;;;;;;;5046570;28;20029;-88
2021/12/15 10:49:22;;;;;;;29.30;13.20;;;;;;;;;;5063743;28;20064;-88
2021/12/15 10:51:48;;;;;;;28.02;13.77;;;;;;;;;;5063055;28;20550;-88
2021/12/15 10:54:13;;;;;;;28.30;13.20;;;;;;;;;;5080501;28;20079;-88
2021/12/15 10:56:38;;;;;;;31.85;16.08;;;;;;;;;;5062637;28;20032;-88
2021/12/15 10:59:04;;;;;;;30.08;13.95;;;;;;;;;;5046435;28;20043;-88
2021/12/15 11:01:29;;;;;;;31.58;14.85;;;;;;;;;;5081035;28;20461;-87
2021/12/15 11:03:54;;;;;;;34.05;16.10;;;;;;;;;;5063123;28;20044;-88
2021/12/15 11:06:20;;;;;;;27.02;12.27;;;;;;;;;;5045488;28;20031;-88
2021/12/15 11:08:45;;;;;;;31.42;13.68;;;;;;;;;;5080074;28;20032;-88
2021/12/15 11:11:10;;;;;;;27.70;13.27;;;;;;;;;;5062875;28;20040;-88
2021/12/15 11:13:36;;;;;;;31.00;14.73;;;;;;;;;;5081528;28;20043;-88
2021/12/15 11:16:01;;;;;;;35.20;16.33;;;;;;;;;;5080786;28;20465;-89
2021/12/15 11:18:28;;;;;;;27.42;12.80;;;;;;;;;;5081593;28;20036;-88
2021/12/15 11:20:54;;;;;;;44.80;22.83;;;;;;;;;;5062402;28;20025;-88
2021/12/15 11:23:19;;;;;;;42.92;23.20;;;;;;;;;;5042014;28;20040;-88
2021/12/15 11:25:44;;;;;;;30.73;14.32;;;;;;;;;;5058692;28;20032;-89
2021/12/15 11:28:10;;;;;;;26.48;13.10;;;;;;;;;;5058792;28;20033;-88
2021/12/15 11:30:35;;;;;;;27.98;13.02;;;;;;;;;;5041873;28;20560;-88
2021/12/15 11:33:00;;;;;;;27.98;13.13;;;;;;;;;;5078057;28;20086;-88
2021/12/15 11:35:26;;;;;;;26.40;12.55;;;;;;;;;;5077971;28;20036;-89
2021/12/15 11:37:51;;;;;;;39.17;18.23;;;;;;;;;;5076742;28;20067;-88
2021/12/15 11:40:16;;;;;;;25.70;13.18;;;;;;;;;;5058595;28;20040;-89
2021/12/15 11:42:42;;;;;;;30.42;15.13;;;;;;;;;;5076105;28;20035;-89
2021/12/15 11:45:07;;;;;;;55.70;22.65;;;;;;;;;;5058869;28;20028;-89
2021/12/15 11:47:33;;;;;;;43.50;19.17;;;;;;;;;;5080827;28;20392;-88
2021/12/15 11:49:58;;;;;;;44.53;19.35;;;;;;;;;;5080775;28;20082;-88
2021/12/15 11:52:24;;;;;;;36.83;18.38;;;;;;;;;;5080957;28;20044;-88
2021/12/15 11:54:49;;;;;;;25.52;13.95;;;;;;;;;;5079148;28;20388;-87
2021/12/15 11:57:14;;;;;;;23.05;13.23;;;;;;;;;;5037463;28;20041;-89
2021/12/15 11:59:40;;;;;;;25.40;13.80;;;;;;;;;;5070818;28;20120;-88
2021/12/15 12:02:05;;;;;;;23.65;13.13;;;;;;;;;;5052950;28;20021;-89
2021/12/15 12:04:54;;;;;;;22.13;13.05;;;;;;;;;;5057087;28;20484;-91
2021/12/15 12:07:33;;;;;;;18.98;10.55;;;;;;;;;;5037959;28;20037;-91
2021/12/15 12:10:09;;;;;;;18.67;10.27;;;;;;;;;;5054434;28;20047;-90
2021/12/15 12:12:36;;;;;;;21.02;10.50;;;;;;;;;;5054426;28;20112;-89
2021/12/15 12:15:01;;;;;;;23.48;10.80;;;;;;;;;;5054897;28;20473;-90
2021/12/15 12:17:27;;;;;;;20.80;10.75;;;;;;;;;;5053453;28;20102;-90
2021/12/15 12:19:52;;;;;;;20.00;10.02;;;;;;;;;;5070480;28;20040;-90
2021/12/15 12:22:17;;;;;;;18.58;10.73;;;;;;;;;;5053654;28;20052;-91
2021/12/15 12:24:43;;;;;;;17.42;9.70;;;;;;;;;;5036895;28;20033;-91
2021/12/15 12:27:13;;;;;;;18.23;9.93;;;;;;;;;;5036999;28;20033;-91
2021/12/15 12:29:38;;;;;;;21.35;11.35;;;;;;;;;;5037405;28;20033;-90
2021/12/15 12:32:06;;;;;;;17.95;9.75;;;;;;;;;;5037373;28;20025;-91
2021/12/15 12:34:32;;;;;;;18.60;10.25;;;;;;;;;;5037079;28;20400;-91
2021/12/15 12:36:57;;;;;;;21.08;9.98;;;;;;;;;;5036970;28;20037;-90
2021/12/15 12:39:22;;;;;;;15.23;8.98;;;;;;;;;;5036387;28;20029;-90
2021/12/15 12:41:49;;;;;;;20.38;10.50;;;;;;;;;;5054529;28;20140;-90
2021/12/15 12:44:14;;;;;;;17.88;9.90;;;;;;;;;;5036940;28;20083;-89
2021/12/15 12:46:46;;;;;;;18.05;9.85;;;;;;;;;;5036014;28;20037;-90
2021/12/15 13:00:08;;;;;;;14.18;8.07;;;;;;;;;;5053033;28;20036;-90
2021/12/15 13:02:40;;;;;;;13.13;8.00;;;;;;;;;;5036371;28;20028;-90
2021/12/15 13:05:05;;;;;;;14.10;8.18;;;;;;;;;;5036485;28;20568;-90
2021/12/15 13:07:30;;;;;;;15.30;8.25;;;;;;;;;;5035857;28;20136;-90
2021/12/15 13:09:56;;;;;;;15.32;8.52;;;;;;;;;;5052817;28;20107;-90
2021/12/15 13:12:21;;;;;;;15.25;8.73;;;;;;;;;;5035991;28;20398;-90
2021/12/15 13:14:47;;;;;;;15.98;9.13;;;;;;;;;;5036080;28;20037;-90
2021/12/15 13:17:13;;;;;;;14.32;8.55;;;;;;;;;;5038413;28;20033;-89
2021/12/15 13:19:38;;;;;;;14.07;8.02;;;;;;;;;;5035803;28;20074;-90
2021/12/15 13:22:37;;;;;;;14.07;7.95;;;;;;;;;;5035797;28;20029;-91
2021/12/15 13:30:45;;;;;;;11.77;7.15;;;;;;;;;;5052930;28;20041;-91
2021/12/15 13:33:13;;;;;;;11.85;7.22;;;;;;;;;;5019391;28;20024;-91
2021/12/15 13:41:41;;;;;;;11.55;7.18;;;;;;;;;;5054919;28;20064;-89
2021/12/15 13:44:58;;;;;;;;;;;;;;;;;;;;;
2021/12/15 13:48:00;;;;;;;17.40;9.23;;;;;;;;;;5053310;28;20044;-91
2021/12/15 13:50:30;;;;;;;14.43;7.75;;;;;;;;;;5019529;28;20037;-91
2021/12/15 13:52:58;;;;;;;14.38;7.95;;;;;;;;;;5036037;28;20025;-91
2021/12/15 13:59:10;;;;;;;14.23;8.43;;;;;;;;;;5091191;28;20036;-90
2021/12/15 14:01:35;;;;;;;14.15;8.82;;;;;;;;;;5091763;28;20043;-89
2021/12/15 14:04:00;;;;;;;13.57;8.48;;;;;;;;;;5088540;28;20040;-90
2021/12/15 14:06:26;;;;;;;14.25;8.18;;;;;;;;;;5082538;28;20028;-90
2021/12/15 14:08:53;;;;;;;13.82;8.30;;;;;;;;;;5072353;28;20393;-90
2021/12/15 14:11:20;;;;;;;11.45;7.47;;;;;;;;;;5090224;28;20039;-90
2021/12/15 14:13:45;;;;;;;12.23;7.30;;;;;;;;;;5089137;28;20401;-90
2021/12/15 14:16:10;;;;;;;11.02;6.68;;;;;;;;;;5071945;28;20021;-90
2021/12/15 14:18:36;;;;;;;11.52;7.07;;;;;;;;;;5089980;28;20028;-90
2021/12/15 14:21:01;;;;;;;13.55;7.65;;;;;;;;;;5070880;28;20082;-89
2021/12/15 14:23:26;;;;;;;13.05;7.70;;;;;;;;;;5052277;28;20052;-90
2021/12/15 14:25:52;;;;;;;10.25;6.18;;;;;;;;;;5069172;28;20468;-90
2021/12/15 14:28:17;;;;;;;9.38;5.90;;;;;;;;;;5053394;28;20549;-90
2021/12/15 14:30:42;;;;;;;10.00;6.15;;;;;;;;;;5070901;28;20079;-90
2021/12/15 14:33:08;;;;;;;8.38;5.97;;;;;;;;;;5069168;28;20037;-90
2021/12/15 14:35:33;;;;;;;8.90;6.05;;;;;;;;;;5068807;28;20032;-90
2021/12/15 14:37:58;;;;;;;10.32;6.20;;;;;;;;;;5069095;28;20043;-90
2021/12/15 14:40:24;;;;;;;10.35;6.43;;;;;;;;;;5069021;28;20035;-90
2021/12/15 14:42:49;;;;;;;10.38;5.90;;;;;;;;;;5069237;28;20458;-90
2021/12/15 14:45:14;;;;;;;10.27;5.93;;;;;;;;;;5069548;28;20036;-90
2021/12/15 14:47:40;;;;;;;9.55;5.82;;;;;;;;;;5069069;28;20476;-90
2021/12/15 14:50:05;;;;;;;9.07;5.70;;;;;;;;;;5068629;28;20039;-90
2021/12/15 14:52:30;;;;;;;9.25;5.75;;;;;;;;;;5068743;28;20051;-90
2021/12/15 14:54:56;;;;;;;10.10;6.47;;;;;;;;;;5052319;28;20032;-90
2021/12/15 14:57:21;;;;;;;13.27;7.55;;;;;;;;;;5084852;28;20068;-90
2021/12/15 14:59:46;;;;;;;11.63;5.78;;;;;;;;;;5069173;28;20494;-90
2021/12/15 15:02:12;;;;;;;13.13;7.78;;;;;;;;;;5069743;28;20037;-90
2021/12/15 15:04:37;;;;;;;12.90;7.60;;;;;;;;;;5068321;28;20044;-90
2021/12/15 15:07:03;;;;;;;10.57;6.30;;;;;;;;;;5054997;28;20111;-90
2021/12/15 15:09:31;;;;;;;9.95;5.72;;;;;;;;;;5056712;28;20032;-91
2021/12/15 15:11:57;;;;;;;10.43;6.32;;;;;;;;;;5055084;28;20499;-91
2021/12/15 15:14:22;;;;;;;14.48;10.05;;;;;;;;;;5059200;28;20472;-90
2021/12/15 15:16:47;;;;;;;13.50;8.68;;;;;;;;;;5074802;28;20119;-90
2021/12/15 15:19:19;;;;;;;10.32;6.35;;;;;;;;;;5075238;28;20051;-91
2021/12/15 15:21:48;;;;;;;9.90;6.15;;;;;;;;;;5059038;28;20074;-90
2021/12/15 15:24:13;;;;;;;8.63;5.60;;;;;;;;;;5076447;28;20025;-90
2021/12/15 15:26:39;;;;;;;8.82;6.05;;;;;;;;;;5075092;28;20469;-90
2021/12/15 15:29:04;;;;;;;9.77;5.88;;;;;;;;;;5058580;28;20035;-89
2021/12/15 15:31:30;;;;;;;9.02;5.85;;;;;;;;;;5076133;28;20081;-90
2021/12/15 15:33:58;;;;;;;8.48;5.75;;;;;;;;;;5076207;28;20024;-89
2021/12/15 15:36:27;;;;;;;10.50;6.63;;;;;;;;;;5058012;28;20489;-89
2021/12/15 15:38:53;;;;;;;11.20;6.82;;;;;;;;;;5053756;28;20025;-90
2021/12/15 15:41:18;;;;;;;9.73;6.22;;;;;;;;;;5054057;28;20039;-89
2021/12/15 15:43:43;;;;;;;14.52;8.45;;;;;;;;;;5055814;28;20029;-89
2021/12/15 15:46:08;;;;;;;14.32;8.38;;;;;;;;;;5054236;28;20118;-90
2021/12/15 15:48:34;;;;;;;9.90;6.50;;;;;;;;;;5054545;28;20040;-90
2021/12/15 15:50:59;;;;;;;9.73;6.10;;;;;;;;;;5054821;28;20497;-90
2021/12/15 15:53:25;;;;;;;10.60;6.38;;;;;;;;;;5055659;28;20031;-90
2021/12/15 15:55:52;;;;;;;13.38;7.90;;;;;;;;;;5054512;28;20131;-89
2021/12/15 15:58:18;;;;;;;15.55;8.45;;;;;;;;;;5054317;28;20040;-90
2021/12/15 16:00:43;;;;;;;16.60;9.43;;;;;;;;;;5054537;28;20033;-90
2021/12/15 16:03:11;;;;;;;16.98;9.40;;;;;;;;;;5054722;28;20124;-90
2021/12/15 16:05:37;;;;;;;13.82;8.95;;;;;;;;;;5069039;28;20028;-90
2021/12/15 16:08:03;;;;;;;14.90;8.45;;;;;;;;;;5074693;28;20404;-90